Time;durP1;ratioP1;P1;durP2;ratioP2;P2;SDS_P1;SDS_P2;PMS_P1;PMS_P2;Temp;Humidity;BMP_temperature;BMP_pressure;BME280_temperature;BME280_humidity;BME280_pressure;Samples;Min_cycle;Max_cycle;Signal;HPM_P1;HPM_P2
2022/06/12 00:00:22;;;;;;;22.00;13.10;;;;;;;-143.84;100.00;44837.72;5006008;28;20487;-70
2022/06/12 00:02:49;;;;;;;15.40;13.77;;;;;;;-143.84;100.00;44828.19;5005948;28;20484;-70
2022/06/12 00:05:20;;;;;;;18.40;13.23;;;;;;;-143.84;100.00;44793.91;5005789;28;20487;-71
2022/06/12 00:07:47;;;;;;;14.47;12.97;;;;;;;-143.84;100.00;44820.56;5005778;28;20508;-71
2022/06/12 00:10:15;;;;;;;18.47;13.07;;;;;;;-143.84;100.00;44792.00;5007335;28;20476;-71
2022/06/12 00:12:44;;;;;;;15.13;13.63;;;;;;;-143.84;100.00;44828.19;5009799;28;20511;-71
2022/06/12 00:15:13;;;;;;;17.23;14.07;;;;;;;-143.84;100.00;44805.34;5009896;28;20489;-71
2022/06/12 00:17:41;;;;;;;15.23;13.40;;;;;;;-143.84;100.00;44818.66;5009846;28;20910;-71
2022/06/12 00:20:10;;;;;;;16.63;14.07;;;;;;;-143.84;100.00;44837.72;5009442;28;20479;-71
2022/06/12 00:22:39;;;;;;;16.77;12.83;;;;;;;-143.84;100.00;44790.13;5009742;28;20443;-71
2022/06/12 00:25:09;;;;;;;19.67;14.80;;;;;;;-143.84;100.00;44812.97;5009427;28;20938;-71
2022/06/12 00:27:36;;;;;;;15.23;13.60;;;;;;;-143.84;100.00;44784.41;5009775;28;20449;-72
2022/06/12 00:30:05;;;;;;;21.63;13.73;;;;;;;-143.84;100.00;44793.91;5009610;28;20493;-72
2022/06/12 00:32:32;;;;;;;17.80;13.47;;;;;;;-143.84;100.00;44851.03;5009190;28;20492;-71
2022/06/12 00:34:59;;;;;;;14.27;12.57;;;;;;;-143.84;100.00;44852.94;5009722;28;20435;-72
2022/06/12 00:37:27;;;;;;;19.83;12.73;;;;;;;-143.84;100.00;44832.00;5009162;28;20444;-72
2022/06/12 00:39:57;;;;;;;15.50;13.37;;;;;;;-143.84;100.00;44847.22;5009210;28;21064;-72
2022/06/12 00:42:30;;;;;;;18.57;13.20;;;;;;;-143.84;100.00;44816.78;5008923;28;20450;-71
2022/06/12 00:44:59;;;;;;;22.50;13.77;;;;;;;-143.84;100.00;44841.53;5008761;28;20865;-71
2022/06/12 00:47:27;;;;;;;15.20;12.70;;;;;;;-143.84;100.00;44835.81;5009453;28;20797;-72
2022/06/12 00:49:58;;;;;;;21.53;13.40;;;;;;;-143.84;100.00;44814.88;5008950;28;20438;-71
2022/06/12 00:52:30;;;;;;;15.00;13.17;;;;;;;-143.84;100.00;44803.44;5009152;28;20497;-72
2022/06/12 00:55:02;;;;;;;14.53;13.07;;;;;;;-143.84;100.00;44805.34;5008918;28;20956;-72
2022/06/12 00:57:30;;;;;;;14.93;12.57;;;;;;;-143.84;100.00;44822.47;5008883;28;20508;-71
2022/06/12 01:00:03;;;;;;;14.63;12.07;;;;;;;-143.84;100.00;44830.09;5008860;28;20532;-71
2022/06/12 01:02:34;;;;;;;22.80;12.80;;;;;;;-143.84;100.00;44822.47;5008939;28;20995;-72
2022/06/12 01:07:50;;;;;;;12.77;11.40;;;;;;;-143.84;100.00;44837.72;5008469;28;20967;-72
2022/06/12 01:10:19;;;;;;;22.13;11.50;;;;;;;-143.84;100.00;44797.72;5008707;28;20833;-72
2022/06/12 01:12:50;;;;;;;15.40;12.33;;;;;;;-143.84;100.00;44826.28;5008972;28;20447;-71
2022/06/12 01:15:21;;;;;;;11.77;10.67;;;;;;;-143.84;100.00;44797.72;5008683;28;20443;-71
2022/06/12 01:17:50;;;;;;;16.27;12.10;;;;;;;-143.84;100.00;44839.63;5008604;28;20982;-72
2022/06/12 01:20:20;;;;;;;15.70;12.00;;;;;;;-143.84;100.00;44849.13;5008896;28;20510;-72
2022/06/12 01:23:08;;;;;;;13.20;11.17;;;;;;;-143.84;100.00;44793.91;5007700;28;20501;-72
2022/06/12 01:26:02;;;;;;;18.17;12.90;;;;;;;-143.84;100.00;44801.53;5008386;28;21008;-72
2022/06/12 01:28:45;;;;;;;16.70;11.37;;;;;;;-143.84;100.00;44786.31;5007956;28;20444;-72
2022/06/12 01:31:39;;;;;;;16.33;12.10;;;;;;;-143.84;100.00;44780.59;5007836;28;20516;-71
2022/06/12 01:34:25;;;;;;;12.20;10.90;;;;;;;-143.84;100.00;44828.19;5001582;28;20642;-71
2022/06/12 01:37:01;;;;;;;12.53;11.23;;;;;;;-143.84;100.00;44782.50;5007825;28;21027;-72
2022/06/12 01:39:37;;;;;;;12.53;11.10;;;;;;;-143.84;100.00;44784.41;5007849;28;20444;-72
2022/06/12 01:42:15;;;;;;;11.90;10.70;;;;;;;-143.84;100.00;44793.91;5007934;28;20493;-71
2022/06/12 01:44:49;;;;;;;17.00;11.10;;;;;;;-143.84;100.00;44845.31;5009676;28;20439;-72
2022/06/12 01:47:25;;;;;;;16.23;12.10;;;;;;;-143.84;100.00;44839.63;5010302;28;20443;-72
2022/06/12 01:49:58;;;;;;;14.43;11.97;;;;;;;-143.84;100.00;44835.81;5009699;28;20501;-72
2022/06/12 01:52:30;;;;;;;14.40;11.80;;;;;;;-143.84;100.00;44852.94;5010041;28;20448;-72
2022/06/12 01:55:03;;;;;;;13.73;11.50;;;;;;;-143.84;100.00;44866.28;5009809;28;20450;-73
2022/06/12 01:57:35;;;;;;;16.40;10.37;;;;;;;-143.84;100.00;44896.75;5009510;28;20439;-72
2022/06/12 02:00:09;;;;;;;21.33;11.53;;;;;;;-143.84;100.00;44881.50;5009399;28;20536;-72
2022/06/12 02:02:41;;;;;;;11.80;10.60;;;;;;;-143.84;100.00;44852.94;5009118;28;20504;-72
2022/06/12 02:05:16;;;;;;;11.93;10.73;;;;;;;-143.84;100.00;44883.41;5009481;28;20483;-72
2022/06/12 02:07:50;;;;;;;12.90;11.60;;;;;;;-143.84;100.00;44856.75;5009759;28;20442;-72
2022/06/12 02:10:22;;;;;;;14.90;11.60;;;;;;;-143.84;100.00;44782.50;5008815;28;20812;-72
2022/06/12 02:13:14;;;;;;;19.40;11.03;;;;;;;-143.84;100.00;44845.31;5008944;28;20436;-72
2022/06/12 02:15:49;;;;;;;12.53;11.33;;;;;;;-143.84;100.00;44763.47;5008729;28;20466;-72
2022/06/12 02:18:24;;;;;;;21.10;12.10;;;;;;;-143.84;100.00;44801.53;5008952;28;20439;-72
2022/06/12 02:21:04;;;;;;;19.03;13.23;;;;;;;-143.84;100.00;44744.41;5008990;28;20479;-72
2022/06/12 02:23:37;;;;;;;15.27;12.60;;;;;;;-143.84;100.00;44748.22;5008707;28;20435;-72
2022/06/12 02:26:07;;;;;;;16.03;13.57;;;;;;;-143.84;100.00;44748.22;5009002;28;20432;-72
2022/06/12 02:28:41;;;;;;;14.67;13.07;;;;;;;-143.84;100.00;44717.75;5008344;28;20456;-72
2022/06/12 02:31:14;;;;;;;14.20;12.73;;;;;;;-143.84;100.00;44727.28;5008427;28;20447;-72
2022/06/12 02:33:45;;;;;;;15.40;13.80;;;;;;;-143.84;100.00;44691.09;5007872;28;20782;-72
2022/06/12 02:36:18;;;;;;;14.77;13.17;;;;;;;-143.84;100.00;44702.53;5009305;28;20438;-72
2022/06/12 02:38:49;;;;;;;16.03;12.90;;;;;;;-143.84;100.00;44721.56;5008997;28;20443;-72
2022/06/12 02:41:22;;;;;;;19.77;13.43;;;;;;;-143.84;100.00;44694.91;5008475;28;20487;-72
2022/06/12 02:43:51;;;;;;;16.90;13.70;;;;;;;-143.84;100.00;44693.00;5008306;28;20439;-72
2022/06/12 02:46:27;;;;;;;15.80;14.10;;;;;;;-143.84;100.00;44658.75;5009317;28;20504;-72
2022/06/12 02:48:55;;;;;;;17.80;13.60;;;;;;;-143.84;100.00;44708.25;5008568;28;20440;-72
2022/06/12 02:51:33;;;;;;;20.53;13.13;;;;;;;-143.84;100.00;44700.63;5007198;28;20443;-70
2022/06/12 02:54:09;;;;;;;20.77;14.60;;;;;;;-143.84;100.00;44717.75;5007150;28;20546;-70
2022/06/12 02:56:44;;;;;;;16.83;14.20;;;;;;;-143.84;100.00;44672.06;5007202;28;20447;-70
2022/06/12 02:59:24;;;;;;;14.60;13.13;;;;;;;-143.84;100.00;44689.19;5006939;28;20496;-70
2022/06/12 03:01:59;;;;;;;14.83;13.27;;;;;;;-143.84;100.00;44729.19;5007027;28;20490;-70
2022/06/12 03:04:34;;;;;;;15.47;13.97;;;;;;;-143.84;100.00;44653.03;5006978;28;20486;-70
2022/06/12 03:07:01;;;;;;;14.33;13.03;;;;;;;-143.84;100.00;44681.59;5007118;28;20504;-70
2022/06/12 03:09:28;;;;;;;18.77;13.77;;;;;;;-143.84;100.00;44689.19;5007058;28;20489;-70
2022/06/12 03:11:56;;;;;;;15.50;13.93;;;;;;;-143.84;100.00;44673.97;5006795;28;20447;-71
2022/06/12 03:14:25;;;;;;;16.73;14.43;;;;;;;-143.84;100.00;44725.38;5006967;28;20466;-71
2022/06/12 03:16:54;;;;;;;16.70;14.90;;;;;;;-143.84;100.00;44729.19;5007064;28;20447;-71
2022/06/12 03:19:24;;;;;;;20.20;14.73;;;;;;;-143.84;100.00;44729.19;5006621;28;20444;-70
2022/06/12 03:21:58;;;;;;;16.50;14.43;;;;;;;-143.84;100.00;44763.47;5006410;28;20566;-70
2022/06/12 03:24:43;;;;;;;17.30;14.50;;;;;;;-143.84;100.00;44784.41;5006646;28;20775;-70
2022/06/12 03:27:24;;;;;;;16.40;14.40;;;;;;;-143.84;100.00;44811.06;5006432;28;20450;-70
2022/06/12 03:30:04;;;;;;;14.43;12.93;;;;;;;-143.84;100.00;44862.47;5006438;28;20432;-71
2022/06/12 03:32:38;;;;;;;15.60;14.00;;;;;;;-143.84;100.00;44845.31;5006698;28;20439;-70
2022/06/12 03:35:15;;;;;;;18.63;14.93;;;;;;;-143.84;100.00;44818.66;5006552;28;20428;-70
2022/06/12 03:37:50;;;;;;;17.20;15.50;;;;;;;-143.84;100.00;44761.56;5006378;28;20443;-70
2022/06/12 03:40:24;;;;;;;20.23;14.37;;;;;;;-143.84;100.00;44797.72;5006120;28;20597;-70
2022/06/12 03:42:55;;;;;;;17.80;16.10;;;;;;;-143.84;100.00;44809.16;5006199;28;20443;-70
2022/06/12 03:45:29;;;;;;;19.63;15.20;;;;;;;-143.84;100.00;44816.78;5005949;28;20444;-70
2022/06/12 03:48:07;;;;;;;18.47;14.60;;;;;;;-143.84;100.00;44854.84;5006470;28;20442;-70
2022/06/12 03:50:41;;;;;;;15.60;14.00;;;;;;;-143.84;100.00;44862.47;5006186;28;21024;-70
2022/06/12 03:53:19;;;;;;;17.33;14.37;;;;;;;-143.84;100.00;44877.69;5006115;28;20802;-72
2022/06/12 03:58:44;;;;;;;15.50;13.70;;;;;;;-143.84;100.00;44957.66;5007696;28;20928;-77
2022/06/12 04:01:13;;;;;;;17.53;15.73;;;;;;;-143.84;100.00;44965.28;5006818;28;20467;-75
2022/06/12 04:03:44;;;;;;;15.53;14.03;;;;;;;-143.84;100.00;44959.56;5006772;28;21182;-76
2022/06/12 04:06:16;;;;;;;16.63;13.77;;;;;;;-143.84;100.00;44982.41;5006758;28;20500;-74
2022/06/12 04:08:46;;;;;;;22.17;14.50;;;;;;;-143.84;100.00;44946.25;5006372;28;20440;-76
2022/06/12 04:11:16;;;;;;;19.30;14.90;;;;;;;-143.84;100.00;44950.06;5005984;28;20458;-76
2022/06/12 04:13:44;;;;;;;15.97;14.10;;;;;;;-143.84;100.00;44919.59;5005800;28;20505;-70
2022/06/12 04:16:24;;;;;;;16.10;14.40;;;;;;;-143.84;100.00;44925.31;5005416;28;20933;-71
2022/06/12 04:18:53;;;;;;;17.03;14.50;;;;;;;-143.84;100.00;44953.88;5005406;28;20435;-71
2022/06/12 04:21:29;;;;;;;16.67;14.97;;;;;;;-143.84;100.00;44931.00;5005456;28;20510;-70
2022/06/12 04:24:06;;;;;;;15.47;13.87;;;;;;;-143.84;100.00;44902.44;5005244;28;20467;-70
2022/06/12 04:26:39;;;;;;;19.03;14.03;;;;;;;-143.84;100.00;44885.31;4987175;28;20444;-72
2022/06/12 04:29:19;;;;;;;19.37;14.10;;;;;;;-143.84;100.00;44887.22;4987922;28;20950;-72
2022/06/12 04:31:49;;;;;;;13.97;12.53;;;;;;;-143.84;100.00;44847.22;4988296;28;20448;-72
2022/06/12 04:34:21;;;;;;;16.53;13.30;;;;;;;-143.84;100.00;44860.56;4987689;28;20441;-71
2022/06/12 04:36:50;;;;;;;13.33;12.03;;;;;;;-143.84;100.00;44833.91;4989178;28;20478;-72
2022/06/12 04:39:21;;;;;;;13.80;12.40;;;;;;;-143.84;100.00;44841.53;4988422;28;20498;-71
2022/06/12 04:41:48;;;;;;;12.93;11.63;;;;;;;-143.84;100.00;44837.72;4988637;28;20476;-71
2022/06/12 04:44:16;;;;;;;15.23;11.30;;;;;;;-143.84;100.00;44856.75;4987880;28;20459;-71
2022/06/12 04:46:45;;;;;;;12.57;11.30;;;;;;;-143.84;100.00;44892.94;4987995;28;20451;-71
2022/06/12 04:49:16;;;;;;;13.70;12.17;;;;;;;-143.84;100.00;44902.44;4987094;28;20494;-72
2022/06/12 04:51:45;;;;;;;16.37;11.67;;;;;;;-143.84;100.00;44969.09;4987654;28;20432;-72
2022/06/12 04:54:12;;;;;;;12.80;10.80;;;;;;;-143.84;100.00;45003.38;4986940;28;20825;-72
2022/06/12 04:56:40;;;;;;;15.93;10.20;;;;;;;-143.84;100.00;44976.72;4987043;28;20505;-72
2022/06/12 04:59:09;;;;;;;17.60;10.20;;;;;;;-143.84;100.00;44969.09;4990090;28;20440;-71
2022/06/12 05:01:36;;;;;;;17.63;11.00;;;;;;;-143.84;100.00;45010.97;4990039;28;20506;-72
2022/06/12 05:04:05;;;;;;;10.93;10.03;;;;;;;-143.84;100.00;45026.22;4988958;28;20500;-71
2022/06/12 05:06:32;;;;;;;11.30;10.33;;;;;;;-143.84;100.00;45005.28;4989880;28;20922;-71
2022/06/12 05:09:01;;;;;;;12.33;11.13;;;;;;;-143.84;100.00;45012.88;4990505;28;20486;-71
2022/06/12 05:11:29;;;;;;;11.07;9.97;;;;;;;-143.84;100.00;45009.09;4990791;28;20543;-71
2022/06/12 05:13:56;;;;;;;11.20;10.10;;;;;;;-143.84;100.00;45001.47;4990532;28;21052;-71
2022/06/12 05:16:30;;;;;;;11.83;10.40;;;;;;;-143.84;100.00;44993.84;4989912;28;20929;-71
2022/06/12 05:18:58;;;;;;;10.70;9.47;;;;;;;-143.84;100.00;45041.44;4989458;28;20440;-71
2022/06/12 05:21:26;;;;;;;17.97;11.20;;;;;;;-143.84;100.00;45018.59;4989411;28;20480;-70
2022/06/12 05:23:53;;;;;;;11.53;10.00;;;;;;;-143.84;100.00;45012.88;4988877;28;20505;-70
2022/06/12 05:26:23;;;;;;;10.90;9.90;;;;;;;-143.84;100.00;45049.06;4988845;28;20437;-70
2022/06/12 05:28:50;;;;;;;11.77;10.57;;;;;;;-143.84;99.84;45045.25;4989078;28;20517;-70
2022/06/12 05:31:18;;;;;;;11.70;10.70;;;;;;;-143.84;100.00;45052.88;4988696;28;20444;-70
2022/06/12 05:33:46;;;;;;;15.40;11.47;;;;;;;-143.84;100.00;45045.25;4988171;28;20993;-70
2022/06/12 05:36:15;;;;;;;11.33;10.17;;;;;;;-143.84;100.00;45035.75;4988582;28;20848;-70
2022/06/12 05:38:45;;;;;;;11.77;10.57;;;;;;;-143.84;100.00;45033.84;4987897;28;20444;-70
2022/06/12 05:41:13;;;;;;;12.50;11.40;;;;;;;-143.84;100.00;45039.53;4988814;28;20583;-70
2022/06/12 05:43:42;;;;;;;12.20;10.97;;;;;;;-143.84;100.00;45016.69;4988517;28;20475;-70
2022/06/12 05:46:10;;;;;;;12.27;11.10;;;;;;;-143.84;100.00;45010.97;4988370;28;20437;-70
2022/06/12 05:48:37;;;;;;;12.00;10.00;;;;;;;-143.84;100.00;45024.31;4987593;28;20437;-70
2022/06/12 05:51:05;;;;;;;13.10;11.23;;;;;;;-143.84;100.00;45030.03;4987510;28;20437;-70
2022/06/12 05:53:36;;;;;;;10.27;9.37;;;;;;;-143.84;100.00;45001.47;4988260;28;20443;-70
2022/06/12 05:56:06;;;;;;;10.80;9.23;;;;;;;-143.84;100.00;45012.88;4988065;28;20441;-70
2022/06/12 05:58:34;;;;;;;9.33;8.50;;;;;;;-143.84;100.00;44999.56;4988013;28;20439;-70
2022/06/12 06:01:03;;;;;;;9.13;8.43;;;;;;;-143.84;100.00;45028.13;4987663;28;20533;-70
2022/06/12 06:03:30;;;;;;;9.57;8.67;;;;;;;-143.84;99.86;45018.59;4987919;28;20596;-70
2022/06/12 06:05:58;;;;;;;9.87;8.93;;;;;;;-143.84;100.00;44991.94;4988755;28;20530;-70
2022/06/12 06:08:25;;;;;;;8.93;8.17;;;;;;;-143.84;100.00;45020.50;4987945;28;21007;-71
2022/06/12 06:10:52;;;;;;;9.53;8.30;;;;;;;-143.84;99.67;45049.06;4988340;28;20459;-70
2022/06/12 06:13:20;;;;;;;8.37;7.60;;;;;;;-143.84;99.52;45041.44;4988393;28;20455;-71
2022/06/12 06:15:50;;;;;;;11.63;7.20;;;;;;;-143.84;98.90;45037.66;4987990;28;20517;-70
2022/06/12 06:18:19;;;;;;;9.77;6.60;;;;;;;-143.84;98.81;45041.44;4987503;28;20533;-70
2022/06/12 06:20:46;;;;;;;7.53;6.40;;;;;;;-143.84;98.45;45030.03;4988089;28;20457;-70
2022/06/12 06:23:15;;;;;;;7.37;6.80;;;;;;;-143.84;98.27;45037.66;4987901;28;21046;-70
2022/06/12 06:25:43;;;;;;;6.97;5.67;;;;;;;-143.84;97.50;45071.91;4988390;28;20433;-70
2022/06/12 06:28:12;;;;;;;7.53;6.53;;;;;;;-143.84;97.67;45041.44;4988107;28;20436;-70
2022/06/12 06:30:40;;;;;;;6.53;6.03;;;;;;;-143.84;96.93;45064.31;4988026;28;21224;-67
2022/06/12 06:33:08;;;;;;;7.63;7.03;;;;;;;-143.84;96.64;45083.34;4987471;28;20436;-67
2022/06/12 06:35:37;;;;;;;6.80;6.23;;;;;;;-143.84;95.05;45087.16;4988252;28;20839;-67
2022/06/12 06:38:05;;;;;;;6.27;5.67;;;;;;;-143.84;94.14;45094.78;4987859;28;20450;-67
2022/06/12 06:40:34;;;;;;;7.43;6.73;;;;;;;-143.84;94.31;45092.88;4987754;28;20984;-67
2022/06/12 06:43:01;;;;;;;6.33;5.83;;;;;;;-143.84;95.02;45092.88;4987440;28;20488;-67
2022/06/12 06:48:14;;;;;;;7.00;5.90;;;;;;;-143.84;94.38;45056.69;4987259;28;20416;-67
2022/06/12 06:50:43;;;;;;;10.33;5.40;;;;;;;-143.84;93.93;45081.44;4987998;28;20432;-68
2022/06/12 06:53:11;;;;;;;5.90;5.40;;;;;;;-143.84;93.40;45073.81;4987830;28;20452;-67
2022/06/12 06:55:39;;;;;;;7.00;5.30;;;;;;;-143.84;93.35;45075.72;4987913;28;20437;-67
2022/06/12 06:58:09;;;;;;;5.80;5.40;;;;;;;-143.84;92.74;45117.63;4987666;28;20773;-68
2022/06/12 07:00:38;;;;;;;5.83;5.50;;;;;;;-143.84;92.63;45077.63;4987215;28;20436;-69
2022/06/12 07:03:05;;;;;;;7.33;6.67;;;;;;;-143.84;91.86;45092.88;4986568;28;20988;-69
2022/06/12 07:05:33;;;;;;;6.70;6.20;;;;;;;-143.84;91.84;45081.44;4987484;28;20445;-69
2022/06/12 07:08:02;;;;;;;8.23;7.43;;;;;;;-143.84;90.42;45094.78;4987608;28;20472;-68
2022/06/12 07:10:32;;;;;;;9.97;5.30;;;;;;;-143.84;89.45;45087.16;4987309;28;20444;-69
2022/06/12 07:13:00;;;;;;;6.20;5.70;;;;;;;-143.84;89.13;45068.13;4987399;28;20467;-69
2022/06/12 07:15:29;;;;;;;9.47;6.50;;;;;;;-143.84;88.84;45121.44;4987407;28;20513;-69
2022/06/12 07:17:58;;;;;;;7.60;6.90;;;;;;;-143.84;87.14;45085.25;4986800;28;20432;-68
2022/06/12 07:20:28;;;;;;;9.53;5.90;;;;;;;-143.84;88.14;45106.19;4986394;28;20444;-68
2022/06/12 07:22:55;;;;;;;7.47;6.70;;;;;;;-143.84;88.80;45096.66;4987406;28;20468;-69
2022/06/12 07:25:24;;;;;;;8.07;7.27;;;;;;;-143.84;88.09;45075.72;4987059;28;20436;-69
2022/06/12 07:27:51;;;;;;;9.20;7.30;;;;;;;-143.84;88.04;45073.81;4986871;28;20456;-68
2022/06/12 07:30:23;;;;;;;7.37;6.67;;;;;;;-143.84;88.66;45096.66;4987113;28;20436;-69
2022/06/12 07:32:50;;;;;;;8.53;7.57;;;;;;;-143.84;88.56;45094.78;4986546;28;20531;-69
2022/06/12 07:35:19;;;;;;;7.83;6.93;;;;;;;-143.84;88.08;45085.25;4987013;28;20433;-69
2022/06/12 07:37:47;;;;;;;7.63;6.93;;;;;;;-143.84;88.33;45100.47;4987061;28;20859;-69
2022/06/12 07:40:18;;;;;;;6.67;5.97;;;;;;;-143.84;88.09;45113.81;4987019;28;21073;-69
2022/06/12 07:42:47;;;;;;;16.70;7.33;;;;;;;-143.84;88.67;45090.97;4987037;28;20480;-68
2022/06/12 07:45:16;;;;;;;7.50;6.80;;;;;;;-143.84;88.93;45125.22;4986133;28;20449;-69
2022/06/12 07:47:44;;;;;;;7.63;6.47;;;;;;;-143.84;89.19;45100.47;4985845;28;20444;-68
2022/06/12 07:50:11;;;;;;;7.30;6.70;;;;;;;-143.84;89.34;45117.63;4986474;28;20445;-70
2022/06/12 07:52:40;;;;;;;9.57;8.03;;;;;;;-143.84;88.30;45070.00;4986974;28;20428;-69
2022/06/12 07:55:09;;;;;;;8.20;7.40;;;;;;;-143.84;88.64;45087.16;4986653;28;20428;-69
2022/06/12 07:57:37;;;;;;;8.30;7.00;;;;;;;-143.84;88.75;45070.00;4986840;28;20470;-69
2022/06/12 08:00:08;;;;;;;8.80;7.10;;;;;;;-143.84;89.07;45125.22;4986982;28;20892;-70
2022/06/12 08:02:35;;;;;;;9.70;8.33;;;;;;;-143.84;88.80;45075.72;4986353;28;20483;-70
2022/06/12 08:05:02;;;;;;;13.47;8.27;;;;;;;-143.84;88.66;45083.34;4986267;28;20491;-70
2022/06/12 08:07:30;;;;;;;8.70;7.80;;;;;;;-143.84;89.09;45115.72;4986869;28;20433;-70
2022/06/12 08:09:57;;;;;;;8.10;7.37;;;;;;;-143.84;89.75;45085.25;4986530;28;20440;-70
2022/06/12 08:12:24;;;;;;;7.93;7.17;;;;;;;-143.84;90.44;45089.06;4986509;28;20985;-70
2022/06/12 08:14:53;;;;;;;14.10;8.40;;;;;;;-143.84;90.46;45090.97;4986570;28;20476;-73
2022/06/12 08:17:23;;;;;;;8.67;7.90;;;;;;;-143.84;89.91;45121.44;4985932;28;20452;-71
2022/06/12 08:22:35;;;;;;;9.57;8.30;;;;;;;-143.84;90.42;45098.56;4986330;28;20561;-70
2022/06/12 08:25:03;;;;;;;7.67;6.97;;;;;;;-143.84;90.89;45073.81;4985673;28;20508;-69
2022/06/12 08:27:30;;;;;;;9.90;8.40;;;;;;;-143.84;91.64;45054.78;4986192;28;20451;-69
2022/06/12 08:29:57;;;;;;;9.50;7.70;;;;;;;-143.84;91.17;45085.25;4986160;28;20444;-70
2022/06/12 08:32:26;;;;;;;8.60;8.00;;;;;;;-143.84;90.51;45079.53;4988308;28;20444;-68
2022/06/12 08:34:57;;;;;;;9.23;8.37;;;;;;;-143.84;91.37;45092.88;5006841;28;20463;-70
2022/06/12 08:37:28;;;;;;;8.23;7.53;;;;;;;-143.84;90.81;45077.63;5009169;28;20484;-71
2022/06/12 08:39:55;;;;;;;8.80;8.03;;;;;;;-143.84;90.52;45064.31;5009428;28;20527;-71
2022/06/12 08:42:25;;;;;;;8.37;7.60;;;;;;;-143.84;90.92;45070.00;5009208;28;20529;-68
2022/06/12 08:44:55;;;;;;;17.00;8.30;;;;;;;-143.84;90.47;45070.00;5006168;28;20462;-67
2022/06/12 08:47:35;;;;;;;7.63;7.03;;;;;;;-143.84;90.38;45070.00;4997181;28;20798;-67
2022/06/12 08:50:14;;;;;;;8.40;7.73;;;;;;;-143.84;90.29;45064.31;4989248;28;20432;-68
2022/06/12 08:52:47;;;;;;;7.67;7.03;;;;;;;-143.84;89.07;45087.16;4989152;28;20973;-67
2022/06/12 08:55:19;;;;;;;10.87;7.90;;;;;;;-143.84;88.79;45079.53;4989162;28;20429;-67
2022/06/12 08:57:53;;;;;;;17.20;7.97;;;;;;;-143.84;89.19;45064.31;4989748;28;20436;-67
2022/06/12 09:00:23;;;;;;;7.20;6.60;;;;;;;-143.84;88.67;45085.25;4989445;28;20977;-67
2022/06/12 09:02:52;;;;;;;12.47;7.40;;;;;;;-143.84;88.76;45066.22;4988802;28;21008;-68
2022/06/12 09:05:26;;;;;;;7.27;6.40;;;;;;;-143.84;86.61;45056.69;4988986;28;20480;-67
2022/06/12 09:08:01;;;;;;;9.03;7.00;;;;;;;-143.84;85.20;45090.97;4989571;28;20436;-67
2022/06/12 09:10:35;;;;;;;16.30;6.30;;;;;;;-143.84;83.90;45066.22;4989039;28;20444;-68
2022/06/12 09:13:15;;;;;;;11.30;6.30;;;;;;;-143.84;83.98;45085.25;4989208;28;20817;-67
2022/06/12 09:15:47;;;;;;;12.57;6.17;;;;;;;-143.84;83.89;45070.00;4988582;28;20893;-68
2022/06/12 09:18:28;;;;;;;7.30;6.60;;;;;;;-143.84;83.21;45070.00;4988934;28;20449;-67
2022/06/12 09:21:05;;;;;;;9.43;6.50;;;;;;;-143.84;81.95;45073.81;4989058;28;20869;-68
2022/06/12 09:23:41;;;;;;;10.47;6.90;;;;;;;-143.84;83.06;45071.91;4989122;28;20486;-68
2022/06/12 09:26:25;;;;;;;7.53;6.67;;;;;;;-143.84;83.39;45071.91;4988653;28;20444;-68
2022/06/12 09:29:02;;;;;;;7.50;6.10;;;;;;;-143.84;80.90;45064.31;4988657;28;20435;-68
2022/06/12 09:31:37;;;;;;;8.73;6.23;;;;;;;-143.84;82.18;45064.31;4987477;28;20431;-69
2022/06/12 09:34:18;;;;;;;9.50;6.27;;;;;;;-143.84;81.70;45071.91;4988798;28;20436;-68
2022/06/12 09:37:00;;;;;;;8.67;6.60;;;;;;;-143.84;81.86;45064.31;4988962;28;20475;-68
2022/06/12 09:39:42;;;;;;;18.50;6.70;;;;;;;-143.84;82.78;45052.88;4989122;28;20466;-67
2022/06/12 09:42:17;;;;;;;6.60;6.00;;;;;;;-143.84;81.10;45056.69;4988438;28;20484;-68
2022/06/12 09:44:52;;;;;;;7.40;6.70;;;;;;;-143.84;81.02;45064.31;4988332;28;20451;-68
2022/06/12 09:47:30;;;;;;;7.50;6.23;;;;;;;-143.84;80.53;45033.84;4988126;28;20447;-68
2022/06/12 09:50:07;;;;;;;12.50;6.47;;;;;;;-143.84;78.70;45083.34;4988020;28;21219;-68
2022/06/12 09:52:55;;;;;;;6.50;5.90;;;;;;;-143.84;78.75;45050.97;4988034;28;20444;-68
2022/06/12 09:55:27;;;;;;;6.80;5.67;;;;;;;-143.84;78.85;45043.34;4988435;28;20459;-68
2022/06/12 09:58:00;;;;;;;18.43;7.30;;;;;;;-143.84;77.85;45052.88;4988598;28;20646;-69
2022/06/12 10:00:33;;;;;;;8.40;5.83;;;;;;;-143.84;77.98;45049.06;4987913;28;20480;-70
2022/06/12 10:03:06;;;;;;;11.90;6.10;;;;;;;-143.84;78.19;45033.84;4988219;28;20496;-71
2022/06/12 10:05:41;;;;;;;6.60;5.40;;;;;;;-143.84;77.51;45066.22;4987785;28;20440;-69
2022/06/12 10:08:14;;;;;;;8.30;6.20;;;;;;;-143.84;77.88;45030.03;4987622;28;20448;-68
2022/06/12 10:10:48;;;;;;;8.20;6.10;;;;;;;-143.84;76.74;45070.00;4988385;28;20440;-68
2022/06/12 10:13:21;;;;;;;6.33;5.70;;;;;;;-143.84;77.94;45058.59;4988525;28;20441;-67
2022/06/12 10:15:53;;;;;;;12.80;5.97;;;;;;;-143.84;76.19;45049.06;4987576;28;20498;-67
2022/06/12 10:18:27;;;;;;;5.63;5.10;;;;;;;-143.84;76.19;45054.78;4988156;28;20448;-67
2022/06/12 10:21:02;;;;;;;13.23;5.37;;;;;;;-143.84;77.06;45047.16;4987934;28;20498;-67
2022/06/12 10:23:29;;;;;;;9.23;5.40;;;;;;;-143.84;75.93;45052.88;4987912;28;20523;-68
2022/06/12 10:26:00;;;;;;;5.93;5.33;;;;;;;-143.84;77.00;45062.41;4987915;28;20438;-68
2022/06/12 10:28:30;;;;;;;11.67;5.47;;;;;;;-143.84;77.70;45030.03;4987920;28;20432;-68
2022/06/12 10:31:16;;;;;;;6.60;5.50;;;;;;;-143.84;76.86;45064.31;4997762;28;20464;-67
2022/06/12 10:33:57;;;;;;;5.83;5.33;;;;;;;-143.84;74.40;45060.50;4987779;28;20472;-67
2022/06/12 10:36:30;;;;;;;6.50;5.43;;;;;;;-143.84;75.37;45052.88;4987821;28;21048;-67
2022/06/12 10:39:06;;;;;;;7.50;5.00;;;;;;;-143.84;74.68;45018.59;4987733;28;20446;-67
2022/06/12 10:41:34;;;;;;;7.30;5.00;;;;;;;-143.84;74.70;45047.16;4987636;28;20436;-67
2022/06/12 10:44:01;;;;;;;5.27;4.80;;;;;;;-143.84;73.46;45043.34;4987933;28;20484;-67
2022/06/12 10:46:31;;;;;;;12.03;5.33;;;;;;;-143.84;72.63;45052.88;4987910;28;20831;-68
2022/06/12 10:49:02;;;;;;;6.40;5.80;;;;;;;-143.84;73.44;45020.50;4987960;28;20445;-67
2022/06/12 10:51:36;;;;;;;8.10;5.27;;;;;;;-143.84;73.58;45039.53;4987540;28;20445;-67
2022/06/12 10:54:12;;;;;;;9.50;5.73;;;;;;;-143.84;72.67;45020.50;4986988;28;20457;-67
2022/06/12 10:56:46;;;;;;;10.40;5.37;;;;;;;-143.84;73.04;45020.50;4987365;28;20432;-70
2022/06/12 10:59:36;;;;;;;9.07;4.87;;;;;;;-143.84;73.49;45028.13;4987596;28;20822;-70
2022/06/12 11:02:40;;;;;;;13.80;5.10;;;;;;;-143.84;72.28;45041.44;4990279;28;20950;-72
2022/06/12 11:05:45;;;;;;;5.47;4.90;;;;;;;-143.84;72.86;45005.28;4987715;28;20494;-70
2022/06/12 11:08:25;;;;;;;8.33;4.50;;;;;;;-143.84;69.70;45005.28;4987967;28;20553;-70
2022/06/12 11:10:58;;;;;;;7.20;4.93;;;;;;;-143.84;69.57;45012.88;4987290;28;20452;-70
2022/06/12 11:13:47;;;;;;;15.13;4.97;;;;;;;-143.84;69.17;45014.78;4987429;28;20444;-70
2022/06/12 11:16:27;;;;;;;12.90;5.40;;;;;;;-143.84;69.09;45041.44;4986882;28;20851;-70
2022/06/12 11:19:12;;;;;;;5.77;5.27;;;;;;;-143.84;68.15;45043.34;4986512;28;20444;-70
2022/06/12 11:21:51;;;;;;;5.10;4.70;;;;;;;-143.84;69.51;45037.66;4987358;28;20501;-70
2022/06/12 11:24:30;;;;;;;14.90;4.93;;;;;;;-143.84;71.45;45047.16;4987195;28;21293;-70
2022/06/12 11:27:13;;;;;;;13.53;4.70;;;;;;;-143.84;70.61;45031.94;4988442;28;20448;-72
2022/06/12 11:29:59;;;;;;;10.40;4.90;;;;;;;-143.84;70.65;45033.84;4987647;28;20433;-72
2022/06/12 11:32:39;;;;;;;5.30;4.80;;;;;;;-143.84;71.57;45024.31;4987377;28;20448;-72
2022/06/12 11:35:21;;;;;;;9.13;5.13;;;;;;;-143.84;69.98;45033.84;4987285;28;20475;-72
2022/06/12 11:38:01;;;;;;;10.50;5.07;;;;;;;-143.84;71.52;45024.31;4987670;28;21243;-72